createdAt,value
2022-09-26T00:00:37.291Z,8.63
2022-09-26T00:03:25.204Z,8.65
2022-09-26T00:06:13.375Z,8.65
2022-09-26T00:09:01.326Z,8.67
2022-09-26T00:11:49.543Z,8.65
2022-09-26T00:14:38.777Z,8.63
2022-09-26T00:17:26.757Z,8.59
2022-09-26T00:20:14.703Z,8.62
2022-09-26T00:23:02.632Z,7.97
2022-09-26T00:25:52.224Z,8.53
2022-09-26T00:28:40.149Z,8.54
2022-09-26T00:31:32.072Z,8.50
2022-09-26T00:34:20.854Z,8.47
2022-09-26T00:37:09.679Z,8.56
2022-09-26T00:39:57.576Z,8.60
2022-09-26T00:42:46.895Z,8.70
2022-09-26T00:45:34.870Z,8.76
2022-09-26T00:48:24.676Z,8.83
2022-09-26T00:51:13.144Z,8.87
2022-09-26T00:54:01.310Z,8.93
2022-09-26T00:56:54.005Z,8.98
2022-09-26T00:59:46.513Z,8.99
2022-09-26T01:02:34.780Z,9.03
2022-09-26T01:05:25.448Z,8.96
2022-09-26T01:08:15.858Z,8.99
2022-09-26T01:11:04.915Z,9.02
2022-09-26T01:13:55.618Z,9.00
2022-09-26T01:16:51.116Z,9.08
2022-09-26T01:19:49.314Z,9.08
2022-09-26T01:23:19.484Z,9.13
2022-09-26T01:26:41.655Z,9.09
2022-09-26T01:30:03.551Z,9.05
2022-09-26T01:33:32.024Z,8.98
2022-09-26T01:36:49.330Z,8.87
2022-09-26T01:39:47.678Z,8.83
2022-09-26T01:42:43.953Z,8.78
2022-09-26T01:45:43.084Z,8.81
2022-09-26T01:48:39.296Z,8.79
2022-09-26T01:51:33.947Z,8.77
2022-09-26T01:54:26.845Z,8.75
2022-09-26T01:57:20.230Z,8.78
2022-09-26T02:00:12.458Z,8.70
2022-09-26T02:03:07.326Z,8.86
2022-09-26T02:06:01.556Z,8.83
2022-09-26T02:08:54.016Z,8.83
2022-09-26T02:11:46.599Z,8.72
2022-09-26T02:14:41.761Z,8.72
2022-09-26T02:17:34.296Z,8.69
2022-09-26T02:20:27.896Z,8.67
2022-09-26T02:23:17.332Z,8.60
2022-09-26T02:26:06.453Z,8.57
2022-09-26T02:28:54.337Z,8.43
2022-09-26T02:31:49.588Z,8.53
2022-09-26T02:34:37.800Z,8.48
2022-09-26T02:37:28.770Z,8.33
2022-09-26T02:40:20.153Z,8.35
2022-09-26T02:43:53.069Z,8.31
2022-09-26T02:46:55.981Z,8.39
2022-09-26T02:50:08.838Z,8.30
2022-09-26T02:53:08.787Z,8.28
2022-09-26T02:56:14.245Z,8.23
2022-09-26T02:59:10.152Z,8.19
2022-09-26T03:02:09.732Z,8.17
2022-09-26T03:05:04.463Z,8.13
2022-09-26T03:07:57.500Z,8.06
2022-09-26T03:10:49.217Z,8.00
2022-09-26T03:13:40.356Z,7.97
2022-09-26T03:16:31.411Z,8.02
2022-09-26T03:19:27.332Z,8.03
2022-09-26T03:22:16.174Z,7.92
2022-09-26T03:25:06.291Z,7.92
2022-09-26T03:27:58.556Z,7.86
2022-09-26T03:30:48.599Z,7.11
2022-09-26T03:33:47.316Z,7.70
2022-09-26T03:36:35.649Z,7.76
2022-09-26T03:39:24.602Z,7.70
2022-09-26T03:42:21.389Z,7.72
2022-09-26T03:45:11.930Z,7.65
2022-09-26T03:48:20.064Z,7.62
2022-09-26T03:51:09.545Z,7.63
2022-09-26T03:53:57.391Z,7.59
2022-09-26T03:56:47.091Z,7.63
2022-09-26T03:59:35.072Z,7.56
2022-09-26T04:02:23.837Z,7.54
2022-09-26T04:05:27.495Z,7.53
2022-09-26T04:08:15.443Z,7.48
2022-09-26T04:11:06.580Z,7.55
2022-09-26T04:13:54.684Z,7.54
2022-09-26T04:16:48.303Z,7.56
2022-09-26T04:19:44.823Z,7.56
2022-09-26T04:22:34.060Z,7.56
2022-09-26T04:25:22.427Z,7.56
2022-09-26T04:28:11.179Z,7.64
2022-09-26T04:30:59.243Z,7.58
2022-09-26T04:33:47.108Z,7.76
2022-09-26T04:36:34.995Z,7.80
2022-09-26T04:39:24.756Z,7.93
2022-09-26T04:42:12.636Z,8.21
2022-09-26T04:45:00.786Z,8.28
2022-09-26T04:47:49.694Z,8.23
2022-09-26T04:50:46.272Z,8.31
2022-09-26T04:53:34.697Z,8.38
2022-09-26T04:56:33.295Z,8.44
2022-09-26T04:59:21.252Z,8.38
2022-09-26T05:02:20.893Z,8.38
2022-09-26T05:05:09.860Z,8.49
2022-09-26T05:07:58.042Z,8.32
2022-09-26T05:10:53.343Z,8.29
2022-09-26T05:13:43.616Z,8.19
2022-09-26T05:16:31.785Z,8.13
2022-09-26T05:19:22.072Z,8.17
2022-09-26T05:22:31.456Z,8.22
2022-09-26T05:25:36.586Z,8.38
2022-09-26T05:28:24.980Z,8.49
2022-09-26T05:31:14.332Z,8.61
2022-09-26T05:34:02.304Z,8.69
2022-09-26T05:36:51.780Z,8.71
2022-09-26T05:39:57.232Z,8.90
2022-09-26T05:42:45.378Z,9.01
2022-09-26T05:45:33.312Z,9.10
2022-09-26T05:48:24.894Z,9.27
2022-09-26T05:51:14.929Z,9.38
2022-09-26T05:54:04.934Z,9.34
2022-09-26T05:56:56.455Z,9.17
2022-09-26T05:59:59.486Z,9.34
2022-09-26T06:02:47.445Z,9.40
2022-09-26T06:05:45.319Z,9.36
2022-09-26T06:08:38.031Z,9.53
2022-09-26T06:11:44.049Z,9.62
2022-09-26T06:14:32.015Z,9.75
2022-09-26T06:17:20.293Z,9.79
2022-09-26T06:20:09.310Z,9.54
2022-09-26T06:22:59.128Z,10.00
2022-09-26T06:25:47.842Z,10.07
2022-09-26T06:28:36.719Z,10.29
2022-09-26T06:31:26.114Z,10.45
2022-09-26T06:34:32.530Z,10.71
2022-09-26T06:37:29.858Z,10.74
2022-09-26T06:40:19.174Z,11.05
2022-09-26T06:43:07.304Z,11.23
2022-09-26T06:46:15.272Z,11.36
2022-09-26T06:49:14.463Z,11.43
2022-09-26T06:52:07.762Z,11.66
2022-09-26T06:54:55.845Z,11.67
2022-09-26T06:57:45.402Z,11.83
2022-09-26T07:00:35.626Z,11.88
2022-09-26T07:03:45.172Z,11.81
2022-09-26T07:06:52.550Z,11.47
2022-09-26T07:09:40.988Z,11.36
2022-09-26T07:12:49.586Z,11.31
2022-09-26T07:15:37.873Z,10.97
2022-09-26T07:18:46.550Z,11.39
2022-09-26T07:21:53.345Z,11.31
2022-09-26T07:24:48.689Z,11.43
2022-09-26T07:27:37.005Z,11.45
2022-09-26T07:30:28.020Z,11.38
2022-09-26T07:33:20.969Z,11.45
2022-09-26T07:36:12.745Z,11.92
2022-09-26T07:39:02.108Z,11.89
2022-09-26T07:41:50.222Z,11.41
2022-09-26T07:45:20.465Z,11.51
2022-09-26T07:48:05.553Z,11.41
2022-09-26T07:51:12.258Z,11.56
2022-09-26T07:54:06.552Z,11.59
2022-09-26T07:57:16.987Z,11.54
2022-09-26T08:00:31.337Z,11.67
2022-09-26T08:03:29.565Z,11.86
2022-09-26T08:06:20.767Z,11.97
2022-09-26T08:09:09.038Z,12.03
2022-09-26T08:12:15.568Z,11.86
2022-09-26T08:15:29.730Z,11.55
2022-09-26T08:18:27.986Z,11.83
2022-09-26T08:21:16.438Z,12.06
2022-09-26T08:24:04.707Z,12.17
2022-09-26T08:26:55.672Z,12.43
2022-09-26T08:29:48.398Z,12.43
2022-09-26T08:32:37.179Z,12.71
2022-09-26T08:35:26.479Z,13.00
2022-09-26T08:38:40.735Z,13.15
2022-09-26T08:45:47.485Z,12.65
2022-09-26T08:49:16.014Z,12.70
2022-09-26T08:52:17.766Z,13.38
2022-09-26T08:55:14.179Z,13.93
2022-09-26T08:58:05.569Z,14.11
2022-09-26T09:00:59.961Z,14.03
2022-09-26T09:03:54.130Z,13.57
2022-09-26T09:06:43.527Z,13.29
2022-09-26T09:09:32.798Z,13.34
2022-09-26T09:13:03.122Z,13.13
2022-09-26T09:16:19.435Z,13.46
2022-09-26T09:19:31.280Z,13.48
2022-09-26T09:23:08.419Z,13.50
2022-09-26T09:29:52.529Z,13.49
2022-09-26T09:33:04.122Z,13.71
2022-09-26T09:36:09.693Z,13.61
2022-09-26T09:39:07.896Z,13.20
2022-09-26T09:42:32.106Z,13.97
2022-09-26T09:45:28.894Z,14.24
2022-09-26T09:48:17.176Z,14.53
2022-09-26T09:51:19.773Z,14.22
2022-09-26T09:54:22.677Z,14.69
2022-09-26T09:57:34.634Z,14.87
2022-09-26T10:00:24.317Z,15.20
2022-09-26T10:03:27.726Z,14.73
2022-09-26T10:06:45.475Z,14.44
2022-09-26T10:09:35.280Z,14.19
2022-09-26T10:13:07.648Z,13.96
2022-09-26T10:16:15.693Z,13.60
2022-09-26T10:19:17.688Z,13.61
2022-09-26T10:22:09.332Z,13.77
2022-09-26T10:25:02.762Z,13.65
2022-09-26T10:27:55.060Z,13.93
2022-09-26T10:30:50.030Z,13.91
2022-09-26T10:33:45.942Z,14.00
2022-09-26T10:36:37.301Z,13.80
2022-09-26T10:39:43.724Z,13.77
2022-09-26T10:42:32.529Z,13.75
2022-09-26T10:45:29.153Z,13.85
2022-09-26T10:48:47.137Z,14.08
2022-09-26T10:52:01.541Z,14.41
2022-09-26T10:54:57.933Z,14.68
2022-09-26T10:57:50.578Z,14.93
2022-09-26T11:00:44.217Z,15.36
2022-09-26T11:03:44.170Z,15.34
2022-09-26T11:06:45.526Z,15.27
2022-09-26T11:09:58.945Z,15.44
2022-09-26T11:13:03.322Z,15.32
2022-09-26T11:16:01.212Z,15.48
2022-09-26T11:18:58.341Z,15.51
2022-09-26T11:21:52.201Z,15.45
2022-09-26T11:24:47.823Z,15.32
2022-09-26T11:27:43.821Z,15.42
2022-09-26T11:30:40.612Z,16.28
2022-09-26T11:33:30.626Z,16.97
2022-09-26T11:37:02.380Z,17.03
2022-09-26T11:40:09.532Z,17.59
2022-09-26T11:43:16.046Z,17.31
2022-09-26T11:46:27.241Z,17.62
2022-09-26T11:49:46.019Z,17.47
2022-09-26T11:53:04.778Z,17.96
2022-09-26T11:56:08.200Z,16.98
2022-09-26T11:59:04.632Z,16.77
2022-09-26T12:02:03.541Z,16.45
2022-09-26T12:05:03.863Z,16.64
2022-09-26T12:08:05.687Z,16.85
2022-09-26T12:11:04.567Z,16.92
2022-09-26T12:14:00.073Z,16.42
2022-09-26T12:16:55.079Z,16.29
2022-09-26T12:19:52.285Z,16.08
2022-09-26T12:22:47.871Z,16.59
2022-09-26T12:25:52.633Z,16.41
2022-09-26T12:28:53.688Z,16.91
2022-09-26T12:32:01.414Z,17.34
2022-09-26T12:35:19.716Z,17.69
2022-09-26T12:38:28.333Z,17.41
2022-09-26T12:41:45.480Z,17.26
2022-09-26T12:44:44.209Z,16.97
2022-09-26T12:47:53.473Z,16.93
2022-09-26T12:50:50.255Z,16.72
2022-09-26T12:53:59.162Z,16.32
2022-09-26T12:56:54.645Z,16.62
2022-09-26T12:59:59.749Z,16.41
2022-09-26T13:03:09.692Z,16.31
2022-09-26T13:06:27.311Z,15.88
2022-09-26T13:09:29.477Z,15.34
2022-09-26T13:12:33.405Z,14.51
2022-09-26T13:15:30.380Z,13.89
2022-09-26T13:18:26.672Z,13.52
2022-09-26T13:21:19.918Z,13.64
2022-09-26T13:24:14.049Z,13.92
2022-09-26T13:27:12.130Z,14.05
2022-09-26T13:30:05.474Z,14.16
2022-09-26T13:33:01.317Z,14.20
2022-09-26T13:35:52.835Z,14.13
2022-09-26T13:38:52.946Z,14.16
2022-09-26T13:41:47.568Z,14.17
2022-09-26T13:44:53.766Z,13.94
2022-09-26T13:47:53.689Z,13.75
2022-09-26T13:50:44.815Z,13.86
2022-09-26T13:53:37.906Z,13.88
2022-09-26T13:56:31.208Z,13.91
2022-09-26T13:59:32.411Z,13.74
2022-09-26T14:02:28.382Z,13.79
2022-09-26T14:05:49.790Z,13.73
2022-09-26T14:09:15.315Z,13.71
2022-09-26T14:12:31.786Z,13.55
2022-09-26T14:15:24.031Z,13.59
2022-09-26T14:18:26.373Z,13.61
2022-09-26T14:21:32.835Z,13.47
2022-09-26T14:24:33.576Z,13.65
2022-09-26T14:27:28.901Z,13.59
2022-09-26T14:30:29.290Z,13.55
2022-09-26T14:33:17.691Z,13.50
2022-09-26T14:36:25.346Z,13.41
2022-09-26T14:39:26.879Z,13.30
2022-09-26T14:42:23.814Z,13.31
2022-09-26T14:45:23.042Z,13.24
2022-09-26T14:48:20.309Z,13.12
2022-09-26T14:51:26.188Z,13.22
2022-09-26T14:54:22.840Z,13.45
2022-09-26T14:57:22.037Z,13.56
2022-09-26T15:00:40.377Z,13.74
2022-09-26T15:03:29.598Z,13.78
2022-09-26T15:06:17.929Z,13.93
2022-09-26T15:09:10.977Z,14.02
2022-09-26T15:12:00.842Z,14.29
2022-09-26T15:14:53.457Z,14.32
2022-09-26T15:17:49.399Z,14.38
2022-09-26T15:20:41.744Z,14.36
2022-09-26T15:23:33.258Z,14.12
2022-09-26T15:26:24.415Z,14.14
2022-09-26T15:29:14.530Z,13.92
2022-09-26T15:32:03.224Z,13.86
2022-09-26T15:34:53.283Z,13.69
2022-09-26T15:37:41.317Z,13.73
2022-09-26T15:40:31.173Z,13.74
2022-09-26T15:43:20.609Z,13.74
2022-09-26T15:46:23.356Z,13.70
2022-09-26T15:49:13.926Z,13.73
2022-09-26T15:52:03.635Z,13.77
2022-09-26T15:54:52.460Z,13.78
2022-09-26T15:57:40.737Z,13.64
2022-09-26T16:00:33.021Z,13.70
2022-09-26T16:03:39.774Z,13.66
2022-09-26T16:06:31.038Z,13.70
2022-09-26T16:09:24.326Z,13.63
2022-09-26T16:12:20.114Z,13.61
2022-09-26T16:15:17.506Z,13.58
2022-09-26T16:18:05.734Z,13.60
2022-09-26T16:21:15.965Z,13.53
2022-09-26T16:24:27.967Z,13.49
2022-09-26T16:27:24.644Z,13.46
2022-09-26T16:30:42.766Z,13.48
2022-09-26T16:33:32.842Z,13.39
2022-09-26T16:36:23.374Z,13.36
2022-09-26T16:39:20.989Z,13.19
2022-09-26T16:42:18.520Z,13.13
2022-09-26T16:45:07.613Z,13.14
2022-09-26T16:47:55.889Z,13.26
2022-09-26T16:50:43.968Z,13.17
2022-09-26T16:53:32.291Z,13.16
2022-09-26T16:56:23.741Z,13.00
2022-09-26T16:59:18.441Z,13.03
2022-09-26T17:02:11.012Z,13.01
2022-09-26T17:04:59.068Z,13.11
2022-09-26T17:07:49.639Z,13.07
2022-09-26T17:10:38.917Z,13.03
2022-09-26T17:13:30.592Z,12.86
2022-09-26T17:16:20.458Z,12.91
2022-09-26T17:19:11.969Z,12.90
2022-09-26T17:22:01.413Z,12.75
2022-09-26T17:24:51.040Z,12.74
2022-09-26T17:27:40.186Z,12.85
2022-09-26T17:30:28.536Z,12.88
2022-09-26T17:33:18.009Z,12.88
2022-09-26T17:36:10.581Z,12.98
2022-09-26T17:38:59.354Z,13.07
2022-09-26T17:41:48.075Z,13.24
2022-09-26T17:44:36.943Z,13.18
2022-09-26T17:47:25.391Z,13.02
2022-09-26T17:50:22.089Z,12.98
2022-09-26T17:53:20.799Z,13.04
2022-09-26T17:56:08.869Z,12.95
2022-09-26T17:58:56.935Z,12.83
2022-09-26T18:01:45.581Z,12.82
2022-09-26T18:04:34.539Z,12.74
2022-09-26T18:07:24.274Z,12.72
2022-09-26T18:10:19.324Z,12.57
2022-09-26T18:13:13.583Z,12.42
2022-09-26T18:16:02.203Z,12.31
2022-09-26T18:18:50.660Z,11.94
2022-09-26T18:21:40.010Z,12.16
2022-09-26T18:24:30.578Z,11.94
2022-09-26T18:27:18.757Z,11.94
2022-09-26T18:30:08.150Z,11.98
2022-09-26T18:32:56.720Z,11.83
2022-09-26T18:35:45.559Z,11.46
2022-09-26T18:38:35.322Z,11.62
2022-09-26T18:41:26.867Z,11.59
2022-09-26T18:44:18.148Z,11.54
2022-09-26T18:47:13.963Z,11.47
2022-09-26T18:50:02.627Z,11.39
2022-09-26T18:52:51.990Z,11.44
2022-09-26T18:55:57.665Z,11.40
2022-09-26T18:58:47.703Z,11.33
2022-09-26T19:01:38.212Z,11.33
2022-09-26T19:04:27.144Z,11.31
2022-09-26T19:07:21.093Z,11.35
2022-09-26T19:10:15.122Z,11.31
2022-09-26T19:13:03.744Z,11.32
2022-09-26T19:15:53.528Z,11.30
2022-09-26T19:18:41.987Z,11.26
2022-09-26T19:21:34.173Z,11.27
2022-09-26T19:24:28.807Z,11.08
2022-09-26T19:27:20.105Z,11.24
2022-09-26T19:30:15.068Z,11.22
2022-09-26T19:33:04.566Z,11.24
2022-09-26T19:35:53.042Z,11.21
2022-09-26T19:38:41.089Z,11.13
2022-09-26T19:41:29.138Z,11.10
2022-09-26T19:44:17.231Z,10.85
2022-09-26T19:47:05.387Z,10.75
2022-09-26T19:49:54.814Z,10.66
2022-09-26T19:52:42.949Z,10.53
2022-09-26T19:55:32.407Z,10.49
2022-09-26T19:58:22.749Z,10.43
2022-09-26T20:01:16.298Z,10.35
2022-09-26T20:04:04.352Z,10.27
2022-09-26T20:06:53.739Z,10.20
2022-09-26T20:09:42.061Z,10.08
2022-09-26T20:12:30.198Z,10.11
2022-09-26T20:15:20.198Z,10.15
2022-09-26T20:18:09.134Z,10.15
2022-09-26T20:20:57.984Z,10.02
2022-09-26T20:23:47.918Z,10.07
2022-09-26T20:26:36.088Z,10.06
2022-09-26T20:29:24.341Z,10.02
2022-09-26T20:32:15.494Z,9.93
2022-09-26T20:35:04.333Z,9.94
2022-09-26T20:37:53.340Z,9.84
2022-09-26T20:40:42.988Z,9.83
2022-09-26T20:43:34.426Z,9.72
2022-09-26T20:46:32.189Z,9.71
2022-09-26T20:49:24.390Z,9.64
2022-09-26T20:52:19.550Z,9.66
2022-09-26T20:55:08.335Z,9.59
2022-09-26T20:57:57.738Z,9.56
2022-09-26T21:00:46.146Z,9.65
2022-09-26T21:03:34.200Z,9.54
2022-09-26T21:06:24.870Z,9.67
2022-09-26T21:09:18.690Z,9.55
2022-09-26T21:12:12.834Z,9.55
2022-09-26T21:15:02.239Z,9.56
2022-09-26T21:17:52.081Z,9.54
2022-09-26T21:20:40.102Z,9.60
2022-09-26T21:23:51.755Z,9.53
2022-09-26T21:26:39.756Z,9.56
2022-09-26T21:29:28.302Z,9.56
2022-09-26T21:32:21.855Z,9.55
2022-09-26T21:35:10.813Z,9.60
2022-09-26T21:38:01.732Z,9.55
2022-09-26T21:40:54.013Z,9.56
2022-09-26T21:43:46.091Z,9.53
2022-09-26T21:46:34.109Z,9.61
2022-09-26T21:49:23.435Z,9.65
2022-09-26T21:52:17.441Z,9.56
2022-09-26T21:55:07.285Z,9.61
2022-09-26T21:57:56.008Z,9.60
2022-09-26T22:00:43.992Z,9.65
2022-09-26T22:03:32.041Z,9.66
2022-09-26T22:06:21.525Z,9.62
2022-09-26T22:09:10.519Z,9.62
2022-09-26T22:11:59.154Z,9.56
2022-09-26T22:14:47.236Z,9.55
2022-09-26T22:17:35.284Z,9.59
2022-09-26T22:20:23.390Z,9.57
2022-09-26T22:23:12.876Z,9.54
2022-09-26T22:26:01.338Z,9.56
2022-09-26T22:28:49.929Z,9.57
2022-09-26T22:31:38.148Z,9.63
2022-09-26T22:34:26.845Z,9.60
2022-09-26T22:37:14.990Z,9.56
2022-09-26T22:40:05.293Z,9.57
2022-09-26T22:42:53.329Z,9.60
2022-09-26T22:45:41.396Z,9.55
2022-09-26T22:48:31.366Z,9.49
2022-09-26T22:51:19.518Z,9.53
2022-09-26T22:54:07.824Z,9.53
2022-09-26T22:56:57.386Z,9.55
2022-09-26T22:59:45.485Z,9.50
2022-09-26T23:02:33.636Z,9.55
2022-09-26T23:05:21.899Z,9.52
2022-09-26T23:08:10.266Z,9.57
2022-09-26T23:10:58.313Z,9.59
2022-09-26T23:13:48.053Z,9.48
2022-09-26T23:16:36.226Z,9.55
2022-09-26T23:19:24.280Z,9.52
2022-09-26T23:22:13.517Z,9.64
2022-09-26T23:25:01.534Z,9.60
2022-09-26T23:27:50.295Z,9.52
2022-09-26T23:30:39.753Z,9.57
2022-09-26T23:33:27.843Z,9.60
2022-09-26T23:36:16.189Z,9.54
2022-09-26T23:39:04.422Z,9.60
2022-09-26T23:41:52.589Z,9.55
2022-09-26T23:44:40.639Z,9.57
2022-09-26T23:47:30.031Z,9.43
2022-09-26T23:50:18.239Z,9.50
2022-09-26T23:53:06.867Z,9.45
2022-09-26T23:56:04.411Z,9.45
2022-09-26T23:58:52.511Z,9.43
